sensor_id;sensor_type;location;lat;lon;timestamp;P1;durP1;ratioP1;P2;durP2;ratioP2
40959;SDS011;27842;52.272;8.052;2023-05-14T00:00:08;19.48;;;10.15;;
40959;SDS011;27842;52.272;8.052;2023-05-14T00:02:34;20.08;;;10.93;;
40959;SDS011;27842;52.272;8.052;2023-05-14T00:04:59;20.30;;;10.95;;
40959;SDS011;27842;52.272;8.052;2023-05-14T00:07:25;20.52;;;10.73;;
40959;SDS011;27842;52.272;8.052;2023-05-14T00:09:54;20.02;;;11.52;;
40959;SDS011;27842;52.272;8.052;2023-05-14T00:12:20;19.33;;;10.65;;
40959;SDS011;27842;52.272;8.052;2023-05-14T00:14:46;18.92;;;10.60;;
40959;SDS011;27842;52.272;8.052;2023-05-14T00:17:12;18.92;;;10.70;;
40959;SDS011;27842;52.272;8.052;2023-05-14T00:19:37;18.63;;;10.05;;
40959;SDS011;27842;52.272;8.052;2023-05-14T00:22:05;17.90;;;10.35;;
40959;SDS011;27842;52.272;8.052;2023-05-14T00:24:32;20.33;;;10.95;;
40959;SDS011;27842;52.272;8.052;2023-05-14T00:26:57;18.40;;;10.88;;
40959;SDS011;27842;52.272;8.052;2023-05-14T00:29:23;18.10;;;9.98;;
40959;SDS011;27842;52.272;8.052;2023-05-14T00:31:48;19.67;;;10.57;;
40959;SDS011;27842;52.272;8.052;2023-05-14T00:34:14;18.48;;;10.88;;
40959;SDS011;27842;52.272;8.052;2023-05-14T00:36:40;18.85;;;10.57;;
40959;SDS011;27842;52.272;8.052;2023-05-14T00:39:05;20.60;;;10.93;;
40959;SDS011;27842;52.272;8.052;2023-05-14T00:41:31;20.35;;;11.02;;
40959;SDS011;27842;52.272;8.052;2023-05-14T00:43:56;19.80;;;10.95;;
40959;SDS011;27842;52.272;8.052;2023-05-14T00:46:22;19.27;;;10.70;;
40959;SDS011;27842;52.272;8.052;2023-05-14T00:48:50;20.17;;;10.88;;
40959;SDS011;27842;52.272;8.052;2023-05-14T00:51:16;22.33;;;11.07;;
40959;SDS011;27842;52.272;8.052;2023-05-14T00:53:43;19.25;;;11.45;;
40959;SDS011;27842;52.272;8.052;2023-05-14T00:56:09;21.65;;;12.20;;
40959;SDS011;27842;52.272;8.052;2023-05-14T00:58:35;20.58;;;10.68;;
40959;SDS011;27842;52.272;8.052;2023-05-14T01:01:01;19.02;;;11.20;;
40959;SDS011;27842;52.272;8.052;2023-05-14T01:03:27;21.63;;;10.90;;
40959;SDS011;27842;52.272;8.052;2023-05-14T01:09:07;21.88;;;11.70;;
40959;SDS011;27842;52.272;8.052;2023-05-14T01:14:21;19.05;;;11.30;;
40959;SDS011;27842;52.272;8.052;2023-05-14T01:16:51;19.95;;;11.70;;
40959;SDS011;27842;52.272;8.052;2023-05-14T01:19:35;19.33;;;10.55;;
40959;SDS011;27842;52.272;8.052;2023-05-14T01:22:01;22.45;;;11.23;;
40959;SDS011;27842;52.272;8.052;2023-05-14T01:24:27;20.50;;;11.27;;
40959;SDS011;27842;52.272;8.052;2023-05-14T01:26:53;18.42;;;11.15;;
40959;SDS011;27842;52.272;8.052;2023-05-14T01:29:25;19.20;;;10.60;;
40959;SDS011;27842;52.272;8.052;2023-05-14T01:31:52;19.17;;;10.35;;
40959;SDS011;27842;52.272;8.052;2023-05-14T01:34:21;19.35;;;10.40;;
40959;SDS011;27842;52.272;8.052;2023-05-14T01:36:50;17.00;;;9.82;;
40959;SDS011;27842;52.272;8.052;2023-05-14T01:39:17;19.33;;;10.63;;
40959;SDS011;27842;52.272;8.052;2023-05-14T01:41:44;20.52;;;9.48;;
40959;SDS011;27842;52.272;8.052;2023-05-14T01:44:10;18.17;;;9.77;;
40959;SDS011;27842;52.272;8.052;2023-05-14T01:46:36;17.10;;;9.75;;
40959;SDS011;27842;52.272;8.052;2023-05-14T01:49:02;18.17;;;9.80;;
40959;SDS011;27842;52.272;8.052;2023-05-14T01:51:27;19.30;;;9.63;;
40959;SDS011;27842;52.272;8.052;2023-05-14T01:53:53;19.80;;;10.05;;
40959;SDS011;27842;52.272;8.052;2023-05-14T01:56:19;17.05;;;9.32;;
40959;SDS011;27842;52.272;8.052;2023-05-14T01:58:47;21.13;;;9.90;;
40959;SDS011;27842;52.272;8.052;2023-05-14T02:01:12;18.33;;;9.07;;
40959;SDS011;27842;52.272;8.052;2023-05-14T02:03:38;19.83;;;10.18;;
40959;SDS011;27842;52.272;8.052;2023-05-14T02:06:04;20.60;;;10.57;;
40959;SDS011;27842;52.272;8.052;2023-05-14T02:08:29;22.00;;;10.65;;
40959;SDS011;27842;52.272;8.052;2023-05-14T02:10:55;20.83;;;10.57;;
40959;SDS011;27842;52.272;8.052;2023-05-14T02:13:20;18.25;;;9.32;;
40959;SDS011;27842;52.272;8.052;2023-05-14T02:15:46;19.35;;;10.88;;
40959;SDS011;27842;52.272;8.052;2023-05-14T02:18:11;18.83;;;9.70;;
40959;SDS011;27842;52.272;8.052;2023-05-14T02:20:37;23.70;;;9.98;;
40959;SDS011;27842;52.272;8.052;2023-05-14T02:23:03;18.15;;;9.77;;
40959;SDS011;27842;52.272;8.052;2023-05-14T02:25:28;18.10;;;10.40;;
40959;SDS011;27842;52.272;8.052;2023-05-14T02:27:54;17.00;;;9.48;;
40959;SDS011;27842;52.272;8.052;2023-05-14T02:30:20;19.20;;;10.25;;
40959;SDS011;27842;52.272;8.052;2023-05-14T02:32:46;17.13;;;10.00;;
40959;SDS011;27842;52.272;8.052;2023-05-14T02:35:11;16.75;;;9.85;;
40959;SDS011;27842;52.272;8.052;2023-05-14T02:37:37;17.98;;;10.07;;
40959;SDS011;27842;52.272;8.052;2023-05-14T02:40:02;18.50;;;9.98;;
40959;SDS011;27842;52.272;8.052;2023-05-14T02:42:28;18.23;;;9.63;;
40959;SDS011;27842;52.272;8.052;2023-05-14T02:44:55;19.45;;;9.93;;
40959;SDS011;27842;52.272;8.052;2023-05-14T02:47:20;18.27;;;9.40;;
40959;SDS011;27842;52.272;8.052;2023-05-14T02:49:46;18.67;;;9.70;;
40959;SDS011;27842;52.272;8.052;2023-05-14T02:52:11;18.00;;;9.88;;
40959;SDS011;27842;52.272;8.052;2023-05-14T02:54:37;18.05;;;10.13;;
40959;SDS011;27842;52.272;8.052;2023-05-14T02:57:03;17.15;;;9.43;;
40959;SDS011;27842;52.272;8.052;2023-05-14T02:59:28;17.92;;;9.70;;
40959;SDS011;27842;52.272;8.052;2023-05-14T03:01:55;18.95;;;9.50;;
40959;SDS011;27842;52.272;8.052;2023-05-14T03:04:20;18.70;;;10.10;;
40959;SDS011;27842;52.272;8.052;2023-05-14T03:06:46;21.08;;;11.25;;
40959;SDS011;27842;52.272;8.052;2023-05-14T03:09:11;17.60;;;9.05;;
40959;SDS011;27842;52.272;8.052;2023-05-14T03:11:38;18.25;;;9.25;;
40959;SDS011;27842;52.272;8.052;2023-05-14T03:14:03;16.60;;;8.93;;
40959;SDS011;27842;52.272;8.052;2023-05-14T03:16:29;18.48;;;9.82;;
40959;SDS011;27842;52.272;8.052;2023-05-14T03:18:55;17.20;;;8.45;;
40959;SDS011;27842;52.272;8.052;2023-05-14T03:21:20;19.27;;;8.65;;
40959;SDS011;27842;52.272;8.052;2023-05-14T03:23:46;16.40;;;8.93;;
40959;SDS011;27842;52.272;8.052;2023-05-14T03:26:11;17.60;;;9.77;;
40959;SDS011;27842;52.272;8.052;2023-05-14T03:28:37;19.42;;;9.80;;
40959;SDS011;27842;52.272;8.052;2023-05-14T03:31:02;17.30;;;9.50;;
40959;SDS011;27842;52.272;8.052;2023-05-14T03:33:28;18.40;;;9.48;;
40959;SDS011;27842;52.272;8.052;2023-05-14T03:35:53;16.15;;;8.90;;
40959;SDS011;27842;52.272;8.052;2023-05-14T03:38:19;17.73;;;9.02;;
40959;SDS011;27842;52.272;8.052;2023-05-14T03:40:44;14.88;;;7.82;;
40959;SDS011;27842;52.272;8.052;2023-05-14T03:43:10;16.30;;;8.35;;
40959;SDS011;27842;52.272;8.052;2023-05-14T03:45:36;20.23;;;8.75;;
40959;SDS011;27842;52.272;8.052;2023-05-14T03:48:01;16.63;;;8.77;;
40959;SDS011;27842;52.272;8.052;2023-05-14T03:50:27;17.58;;;8.20;;
40959;SDS011;27842;52.272;8.052;2023-05-14T03:52:52;17.10;;;7.35;;
40959;SDS011;27842;52.272;8.052;2023-05-14T03:55:19;15.82;;;7.97;;
40959;SDS011;27842;52.272;8.052;2023-05-14T03:57:45;19.80;;;8.20;;
40959;SDS011;27842;52.272;8.052;2023-05-14T04:00:11;18.20;;;7.15;;
40959;SDS011;27842;52.272;8.052;2023-05-14T04:02:37;14.70;;;7.10;;
40959;SDS011;27842;52.272;8.052;2023-05-14T04:05:03;16.00;;;6.72;;
40959;SDS011;27842;52.272;8.052;2023-05-14T04:07:29;16.33;;;6.93;;
40959;SDS011;27842;52.272;8.052;2023-05-14T04:09:54;16.00;;;6.90;;
40959;SDS011;27842;52.272;8.052;2023-05-14T04:12:20;16.85;;;7.10;;
40959;SDS011;27842;52.272;8.052;2023-05-14T04:14:46;15.02;;;6.72;;
40959;SDS011;27842;52.272;8.052;2023-05-14T04:17:11;14.60;;;6.38;;
40959;SDS011;27842;52.272;8.052;2023-05-14T04:19:37;14.65;;;6.53;;
40959;SDS011;27842;52.272;8.052;2023-05-14T04:22:03;13.90;;;6.78;;
40959;SDS011;27842;52.272;8.052;2023-05-14T04:24:29;14.48;;;6.68;;
40959;SDS011;27842;52.272;8.052;2023-05-14T04:26:55;14.40;;;6.38;;
40959;SDS011;27842;52.272;8.052;2023-05-14T04:29:20;15.82;;;6.35;;
40959;SDS011;27842;52.272;8.052;2023-05-14T04:31:48;14.07;;;6.20;;
40959;SDS011;27842;52.272;8.052;2023-05-14T04:34:13;15.65;;;6.65;;
40959;SDS011;27842;52.272;8.052;2023-05-14T04:36:39;13.63;;;6.00;;
40959;SDS011;27842;52.272;8.052;2023-05-14T04:39:05;13.18;;;6.40;;
40959;SDS011;27842;52.272;8.052;2023-05-14T04:41:33;15.95;;;6.50;;
40959;SDS011;27842;52.272;8.052;2023-05-14T04:43:59;13.45;;;6.32;;
40959;SDS011;27842;52.272;8.052;2023-05-14T04:46:25;13.20;;;5.95;;
40959;SDS011;27842;52.272;8.052;2023-05-14T04:48:51;14.77;;;6.47;;
40959;SDS011;27842;52.272;8.052;2023-05-14T04:51:17;15.13;;;7.03;;
40959;SDS011;27842;52.272;8.052;2023-05-14T04:53:42;12.68;;;6.47;;
40959;SDS011;27842;52.272;8.052;2023-05-14T04:56:08;14.25;;;6.68;;
40959;SDS011;27842;52.272;8.052;2023-05-14T04:58:34;16.25;;;6.50;;
40959;SDS011;27842;52.272;8.052;2023-05-14T05:01:00;12.70;;;6.13;;
40959;SDS011;27842;52.272;8.052;2023-05-14T05:03:26;15.32;;;6.78;;
40959;SDS011;27842;52.272;8.052;2023-05-14T05:05:52;13.35;;;6.53;;
40959;SDS011;27842;52.272;8.052;2023-05-14T05:08:17;16.17;;;6.45;;
40959;SDS011;27842;52.272;8.052;2023-05-14T05:10:43;15.02;;;6.93;;
40959;SDS011;27842;52.272;8.052;2023-05-14T05:13:08;15.25;;;7.03;;
40959;SDS011;27842;52.272;8.052;2023-05-14T05:15:34;15.77;;;7.20;;
40959;SDS011;27842;52.272;8.052;2023-05-14T05:17:59;17.55;;;7.03;;
40959;SDS011;27842;52.272;8.052;2023-05-14T05:20:25;17.20;;;7.40;;
40959;SDS011;27842;52.272;8.052;2023-05-14T05:22:52;14.73;;;7.05;;
40959;SDS011;27842;52.272;8.052;2023-05-14T05:25:17;17.27;;;7.03;;
40959;SDS011;27842;52.272;8.052;2023-05-14T05:27:43;19.08;;;7.30;;
40959;SDS011;27842;52.272;8.052;2023-05-14T05:30:09;16.35;;;7.47;;
40959;SDS011;27842;52.272;8.052;2023-05-14T05:32:35;15.23;;;6.78;;
40959;SDS011;27842;52.272;8.052;2023-05-14T05:35:01;13.75;;;6.90;;
40959;SDS011;27842;52.272;8.052;2023-05-14T05:37:27;16.58;;;6.97;;
40959;SDS011;27842;52.272;8.052;2023-05-14T05:39:52;16.33;;;7.70;;
40959;SDS011;27842;52.272;8.052;2023-05-14T05:42:18;14.32;;;7.47;;
40959;SDS011;27842;52.272;8.052;2023-05-14T05:44:44;15.05;;;7.90;;
40959;SDS011;27842;52.272;8.052;2023-05-14T05:47:09;16.35;;;7.47;;
40959;SDS011;27842;52.272;8.052;2023-05-14T05:49:35;14.98;;;7.63;;
40959;SDS011;27842;52.272;8.052;2023-05-14T05:52:01;16.60;;;8.00;;
40959;SDS011;27842;52.272;8.052;2023-05-14T05:54:29;14.73;;;7.93;;
40959;SDS011;27842;52.272;8.052;2023-05-14T05:56:58;16.42;;;8.57;;
40959;SDS011;27842;52.272;8.052;2023-05-14T05:59:24;16.33;;;8.18;;
40959;SDS011;27842;52.272;8.052;2023-05-14T06:01:49;14.90;;;7.65;;
40959;SDS011;27842;52.272;8.052;2023-05-14T06:04:15;17.95;;;8.00;;
40959;SDS011;27842;52.272;8.052;2023-05-14T06:06:40;18.80;;;8.35;;
40959;SDS011;27842;52.272;8.052;2023-05-14T06:09:06;16.05;;;8.32;;
40959;SDS011;27842;52.272;8.052;2023-05-14T06:11:33;16.20;;;8.40;;
40959;SDS011;27842;52.272;8.052;2023-05-14T06:13:59;16.83;;;7.93;;
40959;SDS011;27842;52.272;8.052;2023-05-14T06:16:24;19.08;;;8.82;;
40959;SDS011;27842;52.272;8.052;2023-05-14T06:18:50;15.25;;;7.78;;
40959;SDS011;27842;52.272;8.052;2023-05-14T06:21:16;17.15;;;8.07;;
40959;SDS011;27842;52.272;8.052;2023-05-14T06:23:42;17.23;;;8.02;;
40959;SDS011;27842;52.272;8.052;2023-05-14T06:26:08;15.93;;;8.60;;
40959;SDS011;27842;52.272;8.052;2023-05-14T06:28:34;18.33;;;7.47;;
40959;SDS011;27842;52.272;8.052;2023-05-14T06:30:59;15.73;;;8.00;;
40959;SDS011;27842;52.272;8.052;2023-05-14T06:33:25;16.50;;;7.90;;
40959;SDS011;27842;52.272;8.052;2023-05-14T06:35:54;15.20;;;7.85;;
40959;SDS011;27842;52.272;8.052;2023-05-14T06:38:28;13.38;;;7.50;;
40959;SDS011;27842;52.272;8.052;2023-05-14T06:40:53;16.33;;;7.57;;
40959;SDS011;27842;52.272;8.052;2023-05-14T06:43:19;16.17;;;7.32;;
40959;SDS011;27842;52.272;8.052;2023-05-14T06:45:48;16.23;;;7.07;;
40959;SDS011;27842;52.272;8.052;2023-05-14T06:48:17;15.50;;;7.40;;
40959;SDS011;27842;52.272;8.052;2023-05-14T06:50:44;17.45;;;7.18;;
40959;SDS011;27842;52.272;8.052;2023-05-14T06:53:13;13.80;;;7.20;;
40959;SDS011;27842;52.272;8.052;2023-05-14T06:55:38;13.75;;;6.75;;
40959;SDS011;27842;52.272;8.052;2023-05-14T06:58:07;14.07;;;7.03;;
40959;SDS011;27842;52.272;8.052;2023-05-14T07:02:58;15.88;;;6.53;;
40959;SDS011;27842;52.272;8.052;2023-05-14T07:05:24;15.95;;;6.43;;
40959;SDS011;27842;52.272;8.052;2023-05-14T07:07:50;15.95;;;6.40;;
40959;SDS011;27842;52.272;8.052;2023-05-14T07:10:15;14.82;;;6.35;;
40959;SDS011;27842;52.272;8.052;2023-05-14T07:12:41;13.52;;;6.13;;
40959;SDS011;27842;52.272;8.052;2023-05-14T07:15:07;12.10;;;5.78;;
40959;SDS011;27842;52.272;8.052;2023-05-14T07:17:33;11.45;;;5.70;;
40959;SDS011;27842;52.272;8.052;2023-05-14T07:19:58;13.63;;;5.47;;
40959;SDS011;27842;52.272;8.052;2023-05-14T07:22:24;13.55;;;5.85;;
40959;SDS011;27842;52.272;8.052;2023-05-14T07:24:49;12.02;;;5.78;;
40959;SDS011;27842;52.272;8.052;2023-05-14T07:27:15;13.05;;;5.85;;
40959;SDS011;27842;52.272;8.052;2023-05-14T07:29:41;11.70;;;5.10;;
40959;SDS011;27842;52.272;8.052;2023-05-14T07:32:07;11.05;;;5.30;;
40959;SDS011;27842;52.272;8.052;2023-05-14T07:34:33;11.02;;;5.47;;
40959;SDS011;27842;52.272;8.052;2023-05-14T07:36:58;13.45;;;5.38;;
40959;SDS011;27842;52.272;8.052;2023-05-14T07:39:24;13.77;;;5.43;;
40959;SDS011;27842;52.272;8.052;2023-05-14T07:41:50;13.70;;;5.70;;
40959;SDS011;27842;52.272;8.052;2023-05-14T07:44:16;11.85;;;5.15;;
40959;SDS011;27842;52.272;8.052;2023-05-14T07:46:41;11.77;;;5.25;;
40959;SDS011;27842;52.272;8.052;2023-05-14T07:49:07;11.52;;;5.30;;
40959;SDS011;27842;52.272;8.052;2023-05-14T07:51:32;10.73;;;5.40;;
40959;SDS011;27842;52.272;8.052;2023-05-14T07:53:58;9.90;;;5.22;;
40959;SDS011;27842;52.272;8.052;2023-05-14T07:56:24;9.95;;;4.90;;
40959;SDS011;27842;52.272;8.052;2023-05-14T07:58:49;9.75;;;4.90;;
40959;SDS011;27842;52.272;8.052;2023-05-14T08:01:15;11.38;;;4.47;;
40959;SDS011;27842;52.272;8.052;2023-05-14T08:03:41;9.60;;;4.40;;
40959;SDS011;27842;52.272;8.052;2023-05-14T08:06:07;8.95;;;4.07;;
40959;SDS011;27842;52.272;8.052;2023-05-14T08:08:32;8.02;;;3.83;;
40959;SDS011;27842;52.272;8.052;2023-05-14T08:10:58;8.15;;;3.67;;
40959;SDS011;27842;52.272;8.052;2023-05-14T08:13:24;7.75;;;3.70;;
40959;SDS011;27842;52.272;8.052;2023-05-14T08:15:49;7.18;;;3.33;;
40959;SDS011;27842;52.272;8.052;2023-05-14T08:18:15;11.15;;;3.67;;
40959;SDS011;27842;52.272;8.052;2023-05-14T08:20:40;7.80;;;3.22;;
40959;SDS011;27842;52.272;8.052;2023-05-14T08:23:06;6.80;;;3.28;;
40959;SDS011;27842;52.272;8.052;2023-05-14T08:25:33;7.75;;;3.10;;
40959;SDS011;27842;52.272;8.052;2023-05-14T08:27:59;9.68;;;3.50;;
40959;SDS011;27842;52.272;8.052;2023-05-14T08:30:25;8.27;;;3.00;;
40959;SDS011;27842;52.272;8.052;2023-05-14T08:32:51;8.80;;;3.17;;
40959;SDS011;27842;52.272;8.052;2023-05-14T08:35:17;7.53;;;3.83;;
40959;SDS011;27842;52.272;8.052;2023-05-14T08:37:43;6.75;;;3.40;;
40959;SDS011;27842;52.272;8.052;2023-05-14T08:40:09;7.97;;;3.47;;
40959;SDS011;27842;52.272;8.052;2023-05-14T08:42:36;9.32;;;3.45;;
40959;SDS011;27842;52.272;8.052;2023-05-14T08:45:04;5.40;;;2.80;;
40959;SDS011;27842;52.272;8.052;2023-05-14T08:47:37;11.93;;;3.17;;
40959;SDS011;27842;52.272;8.052;2023-05-14T08:50:04;6.65;;;3.15;;
40959;SDS011;27842;52.272;8.052;2023-05-14T08:52:31;7.72;;;3.28;;
40959;SDS011;27842;52.272;8.052;2023-05-14T08:54:57;8.07;;;2.97;;
40959;SDS011;27842;52.272;8.052;2023-05-14T08:57:25;5.38;;;2.80;;
40959;SDS011;27842;52.272;8.052;2023-05-14T08:59:52;5.13;;;2.55;;
40959;SDS011;27842;52.272;8.052;2023-05-14T09:02:22;5.25;;;2.60;;
40959;SDS011;27842;52.272;8.052;2023-05-14T09:04:53;5.32;;;2.50;;
40959;SDS011;27842;52.272;8.052;2023-05-14T09:07:20;5.47;;;2.80;;
40959;SDS011;27842;52.272;8.052;2023-05-14T09:09:46;8.27;;;3.20;;
40959;SDS011;27842;52.272;8.052;2023-05-14T09:12:12;5.22;;;2.38;;
40959;SDS011;27842;52.272;8.052;2023-05-14T09:14:37;5.80;;;2.65;;
40959;SDS011;27842;52.272;8.052;2023-05-14T09:17:03;5.35;;;2.55;;
40959;SDS011;27842;52.272;8.052;2023-05-14T09:19:29;4.72;;;2.58;;
40959;SDS011;27842;52.272;8.052;2023-05-14T09:21:58;4.97;;;2.40;;
40959;SDS011;27842;52.272;8.052;2023-05-14T09:24:24;4.40;;;2.70;;
40959;SDS011;27842;52.272;8.052;2023-05-14T09:26:53;6.20;;;2.47;;
40959;SDS011;27842;52.272;8.052;2023-05-14T09:29:25;8.30;;;2.42;;
40959;SDS011;27842;52.272;8.052;2023-05-14T09:31:54;6.10;;;2.60;;
40959;SDS011;27842;52.272;8.052;2023-05-14T09:36:53;4.97;;;2.35;;
40959;SDS011;27842;52.272;8.052;2023-05-14T09:39:23;5.43;;;2.60;;
40959;SDS011;27842;52.272;8.052;2023-05-14T09:41:49;6.13;;;2.80;;
40959;SDS011;27842;52.272;8.052;2023-05-14T09:44:18;8.25;;;2.75;;
40959;SDS011;27842;52.272;8.052;2023-05-14T09:46:44;5.75;;;2.33;;
40959;SDS011;27842;52.272;8.052;2023-05-14T09:49:10;5.30;;;2.38;;
40959;SDS011;27842;52.272;8.052;2023-05-14T09:51:37;6.65;;;2.75;;
40959;SDS011;27842;52.272;8.052;2023-05-14T09:54:03;5.88;;;2.47;;
40959;SDS011;27842;52.272;8.052;2023-05-14T09:56:30;6.15;;;2.53;;
40959;SDS011;27842;52.272;8.052;2023-05-14T09:58:56;7.38;;;3.00;;
40959;SDS011;27842;52.272;8.052;2023-05-14T10:01:21;4.60;;;2.50;;
40959;SDS011;27842;52.272;8.052;2023-05-14T10:03:48;5.32;;;2.70;;
40959;SDS011;27842;52.272;8.052;2023-05-14T10:06:15;5.57;;;2.40;;
40959;SDS011;27842;52.272;8.052;2023-05-14T10:08:43;5.95;;;2.47;;
40959;SDS011;27842;52.272;8.052;2023-05-14T10:11:12;4.88;;;2.33;;
40959;SDS011;27842;52.272;8.052;2023-05-14T10:13:45;5.90;;;2.67;;
40959;SDS011;27842;52.272;8.052;2023-05-14T10:18:46;8.30;;;2.58;;
40959;SDS011;27842;52.272;8.052;2023-05-14T10:21:17;5.53;;;2.60;;
40959;SDS011;27842;52.272;8.052;2023-05-14T10:23:44;5.00;;;2.50;;
40959;SDS011;27842;52.272;8.052;2023-05-14T10:26:11;5.28;;;2.60;;
40959;SDS011;27842;52.272;8.052;2023-05-14T10:28:37;5.15;;;2.65;;
40959;SDS011;27842;52.272;8.052;2023-05-14T10:31:03;6.93;;;2.47;;
40959;SDS011;27842;52.272;8.052;2023-05-14T10:33:28;5.28;;;2.50;;
40959;SDS011;27842;52.272;8.052;2023-05-14T10:36:04;6.13;;;2.20;;
40959;SDS011;27842;52.272;8.052;2023-05-14T10:38:31;4.93;;;2.35;;
40959;SDS011;27842;52.272;8.052;2023-05-14T10:40:59;3.80;;;2.10;;
40959;SDS011;27842;52.272;8.052;2023-05-14T10:43:26;5.43;;;2.50;;
40959;SDS011;27842;52.272;8.052;2023-05-14T10:45:56;5.43;;;2.60;;
40959;SDS011;27842;52.272;8.052;2023-05-14T10:48:23;4.32;;;2.40;;
40959;SDS011;27842;52.272;8.052;2023-05-14T10:50:49;7.65;;;2.70;;
40959;SDS011;27842;52.272;8.052;2023-05-14T10:53:16;5.38;;;2.30;;
40959;SDS011;27842;52.272;8.052;2023-05-14T10:55:42;6.10;;;2.30;;
40959;SDS011;27842;52.272;8.052;2023-05-14T10:58:09;6.03;;;2.40;;
40959;SDS011;27842;52.272;8.052;2023-05-14T11:00:35;6.45;;;2.58;;
40959;SDS011;27842;52.272;8.052;2023-05-14T11:03:05;4.80;;;2.10;;
40959;SDS011;27842;52.272;8.052;2023-05-14T11:05:31;5.85;;;2.40;;
40959;SDS011;27842;52.272;8.052;2023-05-14T11:07:59;8.43;;;2.60;;
40959;SDS011;27842;52.272;8.052;2023-05-14T11:10:28;4.70;;;2.20;;
40959;SDS011;27842;52.272;8.052;2023-05-14T11:12:54;6.50;;;2.47;;
40959;SDS011;27842;52.272;8.052;2023-05-14T11:15:22;5.03;;;2.42;;
40959;SDS011;27842;52.272;8.052;2023-05-14T11:20:16;7.03;;;2.50;;
40959;SDS011;27842;52.272;8.052;2023-05-14T11:22:42;3.92;;;2.22;;
40959;SDS011;27842;52.272;8.052;2023-05-14T11:25:09;5.38;;;2.20;;
40959;SDS011;27842;52.272;8.052;2023-05-14T11:27:38;3.95;;;2.30;;
40959;SDS011;27842;52.272;8.052;2023-05-14T11:30:04;5.78;;;2.30;;
40959;SDS011;27842;52.272;8.052;2023-05-14T11:32:40;6.10;;;2.28;;
40959;SDS011;27842;52.272;8.052;2023-05-14T11:35:07;6.30;;;2.40;;
40959;SDS011;27842;52.272;8.052;2023-05-14T11:37:33;5.43;;;2.42;;
40959;SDS011;27842;52.272;8.052;2023-05-14T11:39:58;3.50;;;2.13;;
40959;SDS011;27842;52.272;8.052;2023-05-14T11:42:25;6.30;;;2.35;;
40959;SDS011;27842;52.272;8.052;2023-05-14T11:44:51;6.45;;;2.40;;
40959;SDS011;27842;52.272;8.052;2023-05-14T11:47:21;4.03;;;2.10;;
40959;SDS011;27842;52.272;8.052;2023-05-14T11:49:47;4.03;;;2.35;;
40959;SDS011;27842;52.272;8.052;2023-05-14T11:52:13;6.65;;;2.40;;
40959;SDS011;27842;52.272;8.052;2023-05-14T11:54:40;4.75;;;2.30;;
40959;SDS011;27842;52.272;8.052;2023-05-14T11:57:11;7.25;;;2.60;;
40959;SDS011;27842;52.272;8.052;2023-05-14T11:59:37;3.85;;;1.92;;
40959;SDS011;27842;52.272;8.052;2023-05-14T12:02:04;3.53;;;2.30;;
40959;SDS011;27842;52.272;8.052;2023-05-14T12:04:32;3.95;;;1.90;;
40959;SDS011;27842;52.272;8.052;2023-05-14T12:06:58;3.85;;;2.20;;
40959;SDS011;27842;52.272;8.052;2023-05-14T12:09:34;6.30;;;2.58;;
40959;SDS011;27842;52.272;8.052;2023-05-14T12:12:06;4.22;;;2.15;;
40959;SDS011;27842;52.272;8.052;2023-05-14T12:14:36;4.65;;;2.17;;
40959;SDS011;27842;52.272;8.052;2023-05-14T12:17:08;6.60;;;2.20;;
40959;SDS011;27842;52.272;8.052;2023-05-14T12:19:38;4.93;;;2.20;;
40959;SDS011;27842;52.272;8.052;2023-05-14T12:22:04;6.30;;;2.25;;
40959;SDS011;27842;52.272;8.052;2023-05-14T12:24:30;4.18;;;2.35;;
40959;SDS011;27842;52.272;8.052;2023-05-14T12:26:55;6.25;;;2.50;;
40959;SDS011;27842;52.272;8.052;2023-05-14T12:29:24;5.97;;;2.35;;
40959;SDS011;27842;52.272;8.052;2023-05-14T12:31:51;4.90;;;2.05;;
40959;SDS011;27842;52.272;8.052;2023-05-14T12:34:17;5.00;;;2.33;;
40959;SDS011;27842;52.272;8.052;2023-05-14T12:36:42;4.82;;;2.20;;
40959;SDS011;27842;52.272;8.052;2023-05-14T12:39:08;4.45;;;2.15;;
40959;SDS011;27842;52.272;8.052;2023-05-14T12:41:35;4.15;;;2.20;;
40959;SDS011;27842;52.272;8.052;2023-05-14T12:44:04;4.85;;;2.20;;
40959;SDS011;27842;52.272;8.052;2023-05-14T12:46:29;7.03;;;3.63;;
40959;SDS011;27842;52.272;8.052;2023-05-14T12:48:56;7.10;;;2.75;;
40959;SDS011;27842;52.272;8.052;2023-05-14T12:51:22;3.80;;;2.00;;
40959;SDS011;27842;52.272;8.052;2023-05-14T12:53:47;5.57;;;2.15;;
40959;SDS011;27842;52.272;8.052;2023-05-14T12:56:14;5.68;;;2.20;;
40959;SDS011;27842;52.272;8.052;2023-05-14T12:58:40;5.47;;;2.35;;
40959;SDS011;27842;52.272;8.052;2023-05-14T13:01:05;4.25;;;2.22;;
40959;SDS011;27842;52.272;8.052;2023-05-14T13:03:31;3.60;;;2.00;;
40959;SDS011;27842;52.272;8.052;2023-05-14T13:05:57;5.10;;;1.98;;
40959;SDS011;27842;52.272;8.052;2023-05-14T13:08:23;4.00;;;2.03;;
40959;SDS011;27842;52.272;8.052;2023-05-14T13:10:50;3.72;;;2.00;;
40959;SDS011;27842;52.272;8.052;2023-05-14T13:13:16;4.85;;;2.25;;
40959;SDS011;27842;52.272;8.052;2023-05-14T13:15:42;5.10;;;1.95;;
40959;SDS011;27842;52.272;8.052;2023-05-14T13:18:10;5.30;;;2.13;;
40959;SDS011;27842;52.272;8.052;2023-05-14T13:23:04;9.18;;;2.17;;
40959;SDS011;27842;52.272;8.052;2023-05-14T13:25:30;4.18;;;2.00;;
40959;SDS011;27842;52.272;8.052;2023-05-14T13:27:55;6.40;;;2.30;;
40959;SDS011;27842;52.272;8.052;2023-05-14T13:30:21;8.15;;;2.55;;
40959;SDS011;27842;52.272;8.052;2023-05-14T13:32:47;4.25;;;1.90;;
40959;SDS011;27842;52.272;8.052;2023-05-14T13:35:12;5.03;;;2.13;;
40959;SDS011;27842;52.272;8.052;2023-05-14T13:37:38;4.57;;;2.10;;
40959;SDS011;27842;52.272;8.052;2023-05-14T13:40:04;4.47;;;2.00;;
40959;SDS011;27842;52.272;8.052;2023-05-14T13:42:32;4.45;;;1.90;;
40959;SDS011;27842;52.272;8.052;2023-05-14T13:44:58;5.30;;;2.25;;
40959;SDS011;27842;52.272;8.052;2023-05-14T13:47:24;5.13;;;2.05;;
40959;SDS011;27842;52.272;8.052;2023-05-14T13:49:51;6.50;;;2.20;;
40959;SDS011;27842;52.272;8.052;2023-05-14T13:52:19;5.13;;;2.05;;
40959;SDS011;27842;52.272;8.052;2023-05-14T13:54:45;5.80;;;2.17;;
40959;SDS011;27842;52.272;8.052;2023-05-14T13:57:11;6.03;;;2.10;;
40959;SDS011;27842;52.272;8.052;2023-05-14T13:59:37;7.78;;;2.45;;
40959;SDS011;27842;52.272;8.052;2023-05-14T14:02:03;5.78;;;2.75;;
40959;SDS011;27842;52.272;8.052;2023-05-14T14:04:29;5.00;;;2.47;;
40959;SDS011;27842;52.272;8.052;2023-05-14T14:06:55;4.70;;;2.50;;
40959;SDS011;27842;52.272;8.052;2023-05-14T14:09:20;6.05;;;2.67;;
40959;SDS011;27842;52.272;8.052;2023-05-14T14:11:46;6.22;;;2.50;;
40959;SDS011;27842;52.272;8.052;2023-05-14T14:14:12;6.70;;;2.42;;
40959;SDS011;27842;52.272;8.052;2023-05-14T14:16:38;3.72;;;2.15;;
40959;SDS011;27842;52.272;8.052;2023-05-14T14:19:03;3.00;;;2.10;;
40959;SDS011;27842;52.272;8.052;2023-05-14T14:21:29;6.40;;;2.38;;
40959;SDS011;27842;52.272;8.052;2023-05-14T14:23:55;11.30;;;2.65;;
40959;SDS011;27842;52.272;8.052;2023-05-14T14:26:21;4.30;;;2.20;;
40959;SDS011;27842;52.272;8.052;2023-05-14T14:28:47;5.95;;;2.30;;
40959;SDS011;27842;52.272;8.052;2023-05-14T14:31:12;4.47;;;2.33;;
40959;SDS011;27842;52.272;8.052;2023-05-14T14:33:38;2.97;;;2.00;;
40959;SDS011;27842;52.272;8.052;2023-05-14T14:36:04;4.43;;;2.25;;
40959;SDS011;27842;52.272;8.052;2023-05-14T14:38:30;3.60;;;2.05;;
40959;SDS011;27842;52.272;8.052;2023-05-14T14:40:56;4.78;;;2.08;;
40959;SDS011;27842;52.272;8.052;2023-05-14T14:43:22;8.93;;;2.10;;
40959;SDS011;27842;52.272;8.052;2023-05-14T14:45:48;4.97;;;1.88;;
40959;SDS011;27842;52.272;8.052;2023-05-14T14:48:27;7.05;;;2.10;;
40959;SDS011;27842;52.272;8.052;2023-05-14T14:51:03;3.85;;;2.10;;